Time;durP1;ratioP1;P1;durP2;ratioP2;P2;SDS_P1;SDS_P2;PMS_P1;PMS_P2;Temp;Humidity;BMP_temperature;BMP_pressure;BME280_temperature;BME280_humidity;BME280_pressure;Samples;Min_cycle;Max_cycle;Signal;HPM_P1;HPM_P2
2024/01/15 00:01:01;;;;;;;26.90;25.57;;;;;;;-141.02;100.00;38726.34;5093209;28;20281;-63
2024/01/15 00:03:28;;;;;;;26.67;25.37;;;;;;;-141.02;100.00;38770.44;5093098;28;20312;-63
2024/01/15 00:05:55;;;;;;;25.47;24.27;;;;;;;-141.02;100.00;38714.84;5093077;28;20194;-64
2024/01/15 00:08:22;;;;;;;26.70;25.40;;;;;;;-141.02;100.00;38722.50;5093067;28;20194;-64
2024/01/15 00:10:49;;;;;;;26.70;25.40;;;;;;;-141.02;100.00;38720.59;5092938;28;20193;-63
2024/01/15 00:13:16;;;;;;;23.40;22.30;;;;;;;-141.02;100.00;38757.03;5092672;28;20280;-63
2024/01/15 00:15:44;;;;;;;24.53;23.33;;;;;;;-141.02;100.00;38753.19;5092413;28;20228;-64
2024/01/15 00:18:11;;;;;;;24.20;23.00;;;;;;;-141.02;100.00;38772.38;5093159;28;20190;-64
2024/01/15 00:20:38;;;;;;;24.50;23.30;;;;;;;-141.02;100.00;38810.72;5092880;28;20196;-64
2024/01/15 00:23:05;;;;;;;26.47;25.17;;;;;;;-141.02;100.00;38795.38;5092730;28;20617;-63
2024/01/15 00:25:32;;;;;;;25.70;24.40;;;;;;;-141.02;100.00;38774.28;5092289;28;20194;-63
2024/01/15 00:27:59;;;;;;;27.70;26.30;;;;;;;-141.02;100.00;38768.53;5092650;28;20194;-63
2024/01/15 00:30:26;;;;;;;27.03;25.63;;;;;;;-141.02;100.00;38778.13;5092725;28;20194;-63
2024/01/15 00:32:54;;;;;;;23.80;22.60;;;;;;;-141.02;100.00;38810.72;5092654;28;20635;-65
2024/01/15 00:35:22;;;;;;;24.63;23.43;;;;;;;-141.02;100.00;38810.72;5092617;28;20200;-64
2024/01/15 00:37:49;;;;;;;26.20;24.90;;;;;;;-141.02;100.00;38799.22;5092268;28;20566;-64
2024/01/15 00:40:16;;;;;;;25.53;24.33;;;;;;;-141.02;100.00;38791.53;5092205;28;20586;-63
2024/01/15 00:42:42;;;;;;;25.20;24.00;;;;;;;-141.02;100.00;38827.97;5093307;28;20228;-63
2024/01/15 00:45:10;;;;;;;28.20;26.77;;;;;;;-141.02;100.00;38799.22;5092433;28;20197;-63
2024/01/15 00:47:37;;;;;;;26.50;25.10;;;;;;;-141.02;100.00;38791.53;5092563;28;20197;-63
2024/01/15 00:50:07;;;;;;;29.73;28.13;;;;;;;-141.02;100.00;38804.97;5092150;28;20682;-63
2024/01/15 00:52:35;;;;;;;30.27;28.77;;;;;;;-141.02;100.00;38795.38;5092128;28;20194;-63
2024/01/15 00:55:02;;;;;;;26.43;25.13;;;;;;;-141.02;100.00;38783.88;5092420;28;20198;-63
2024/01/15 00:57:29;;;;;;;25.67;24.37;;;;;;;-141.02;100.00;38789.63;5092410;28;20640;-63
2024/01/15 00:59:56;;;;;;;29.63;28.13;;;;;;;-141.02;100.00;38780.03;5092294;28;20204;-63
2024/01/15 01:02:23;;;;;;;29.17;27.73;;;;;;;-141.02;100.00;38793.47;5091965;28;20652;-64
2024/01/15 01:04:49;;;;;;;26.77;25.47;;;;;;;-141.02;100.00;38818.38;5092262;28;20232;-64
2024/01/15 01:07:19;;;;;;;26.57;25.27;;;;;;;-141.02;100.00;38795.38;5092267;28;20285;-64
2024/01/15 01:09:47;;;;;;;28.93;27.43;;;;;;;-141.02;100.00;38745.53;5092097;28;20280;-63
2024/01/15 01:12:14;;;;;;;27.80;26.40;;;;;;;-141.02;100.00;38622.81;5091863;28;20548;-63
2024/01/15 01:14:41;;;;;;;27.73;26.33;;;;;;;-141.02;100.00;38580.63;5091626;28;20656;-64
2024/01/15 01:17:08;;;;;;;26.47;25.17;;;;;;;-141.02;100.00;38595.97;5091970;28;20649;-63
2024/01/15 01:19:35;;;;;;;22.13;21.13;;;;;;;-141.02;100.00;38603.63;5091821;28;20207;-64
2024/01/15 01:22:02;;;;;;;22.97;21.87;;;;;;;-141.02;100.00;38569.13;5092022;28;20694;-64
2024/01/15 01:24:30;;;;;;;27.03;25.67;;;;;;;-141.02;100.00;38651.56;5092038;28;20225;-62
2024/01/15 01:26:57;;;;;;;26.30;25.10;;;;;;;-141.02;100.00;38645.81;5092030;28;20190;-63
2024/01/15 01:29:26;;;;;;;25.77;24.47;;;;;;;-141.02;100.00;38615.13;5092100;28;20194;-63
2024/01/15 01:31:53;;;;;;;22.80;21.70;;;;;;;-141.02;100.00;38684.16;5092010;28;20193;-64
2024/01/15 01:34:19;;;;;;;24.03;22.63;;;;;;;-141.02;100.00;38665.00;5092998;28;20194;-63
2024/01/15 01:36:46;;;;;;;28.10;26.60;;;;;;;-141.02;100.00;38657.31;5092622;28;20232;-63
2024/01/15 01:39:13;;;;;;;29.00;27.47;;;;;;;-141.02;100.00;38707.19;5095845;28;20200;-63
2024/01/15 01:41:42;;;;;;;25.47;24.17;;;;;;;-141.02;100.00;38714.84;5095495;28;20205;-63
2024/01/15 01:44:09;;;;;;;24.37;23.17;;;;;;;-141.02;100.00;38718.69;5095374;28;20806;-63
2024/01/15 01:46:39;;;;;;;27.27;25.87;;;;;;;-141.02;100.00;38726.34;5095753;28;20197;-64
2024/01/15 01:49:07;;;;;;;27.77;26.37;;;;;;;-141.02;100.00;38707.19;5095408;28;20190;-63
2024/01/15 01:51:35;;;;;;;29.43;27.93;;;;;;;-141.02;100.00;38741.69;5095654;28;20194;-64
2024/01/15 01:54:03;;;;;;;25.93;24.63;;;;;;;-141.02;100.00;38726.34;5095286;28;20190;-63
2024/01/15 01:56:30;;;;;;;26.10;24.70;;;;;;;-141.02;100.00;38749.34;5095578;28;20189;-64
2024/01/15 01:58:58;;;;;;;29.73;28.13;;;;;;;-141.02;100.00;38732.09;5095475;28;20277;-64
2024/01/15 02:01:26;;;;;;;28.97;27.47;;;;;;;-141.02;100.00;38745.53;5095125;28;20743;-63
2024/01/15 02:03:56;;;;;;;26.10;24.80;;;;;;;-141.02;100.00;38783.88;5095401;28;20236;-63
2024/01/15 02:06:23;;;;;;;27.83;26.43;;;;;;;-141.02;100.00;38724.44;5095616;28;20277;-64
2024/01/15 02:08:51;;;;;;;27.10;25.70;;;;;;;-141.02;100.00;38741.69;5095306;28;20196;-64
2024/01/15 02:11:18;;;;;;;28.87;27.37;;;;;;;-141.02;100.00;38722.50;5095274;28;20194;-64
2024/01/15 02:13:45;;;;;;;25.93;24.63;;;;;;;-141.02;100.00;38724.44;5095408;28;20224;-64
2024/01/15 02:16:14;;;;;;;28.40;26.90;;;;;;;-141.02;100.00;38772.38;5095213;28;20228;-63
2024/01/15 02:18:44;;;;;;;28.53;27.03;;;;;;;-141.02;100.00;38770.44;5094819;28;20578;-64
2024/01/15 02:21:11;;;;;;;27.17;25.67;;;;;;;-141.02;100.00;38747.44;5095391;28;20280;-65
2024/01/15 02:23:40;;;;;;;27.87;26.27;;;;;;;-141.02;100.00;38743.59;5094855;28;20310;-64
2024/01/15 02:26:08;;;;;;;29.13;27.43;;;;;;;-141.02;100.00;38743.59;5094861;28;20678;-63
2024/01/15 02:28:35;;;;;;;29.23;27.63;;;;;;;-141.02;100.00;38764.69;5094605;28;20760;-65
2024/01/15 02:31:02;;;;;;;25.10;23.70;;;;;;;-141.02;100.00;38757.03;5094908;28;20293;-63
2024/01/15 02:33:29;;;;;;;24.70;23.30;;;;;;;-141.02;100.00;38762.78;5094831;28;20296;-63
2024/01/15 02:35:56;;;;;;;29.87;28.30;;;;;;;-141.02;100.00;38734.03;5094475;28;20559;-63
2024/01/15 02:38:23;;;;;;;29.27;27.77;;;;;;;-141.02;100.00;38757.03;5094392;28;20555;-63
2024/01/15 02:40:51;;;;;;;28.00;26.50;;;;;;;-141.02;100.00;38691.84;5094695;28;20194;-63
2024/01/15 02:43:19;;;;;;;23.80;22.60;;;;;;;-141.02;100.00;38549.94;5095426;28;20202;-66
2024/01/15 02:45:46;;;;;;;23.70;22.60;;;;;;;-141.02;100.00;38461.75;5094635;28;20211;-65
2024/01/15 02:48:13;;;;;;;21.90;20.90;;;;;;;-141.02;100.00;38431.09;5094214;28;20201;-65
2024/01/15 02:50:40;;;;;;;21.93;20.93;;;;;;;-141.02;100.00;38339.06;5094238;28;20682;-65
2024/01/15 02:53:07;;;;;;;15.40;14.80;;;;;;;-141.02;100.00;38312.22;5094195;28;20197;-63
2024/01/15 02:55:34;;;;;;;19.33;18.53;;;;;;;-141.02;100.00;38247.03;5094463;28;20194;-65
2024/01/15 02:58:03;;;;;;;15.10;14.60;;;;;;;-141.02;100.00;38162.69;5094088;28;20197;-64
2024/01/15 03:00:30;;;;;;;14.53;14.03;;;;;;;-141.02;100.00;38082.16;5094332;28;20194;-62
2024/01/15 03:02:57;;;;;;;14.60;14.10;;;;;;;-141.02;100.00;38047.66;5094330;28;20668;-65
2024/01/15 03:05:24;;;;;;;16.00;15.40;;;;;;;-141.02;100.00;38061.06;5093808;28;20315;-65
2024/01/15 03:07:51;;;;;;;14.53;14.03;;;;;;;-141.02;100.00;38103.25;5093899;28;20690;-67
2024/01/15 03:10:18;;;;;;;13.80;13.30;;;;;;;-141.02;100.00;38086.00;5093919;28;20194;-64
2024/01/15 03:12:45;;;;;;;17.73;16.93;;;;;;;-141.02;100.00;38116.66;5094315;28;20204;-67
2024/01/15 03:15:13;;;;;;;18.10;17.40;;;;;;;-141.02;100.00;38156.94;5093890;28;20379;-63
2024/01/15 03:17:42;;;;;;;19.47;18.77;;;;;;;-141.02;100.00;38174.19;5093693;28;20556;-63
2024/01/15 03:20:10;;;;;;;18.50;17.80;;;;;;;-141.02;100.00;38191.44;5093614;28;20189;-66
2024/01/15 03:22:37;;;;;;;16.53;15.93;;;;;;;-141.02;100.00;38227.84;5093589;28;20200;-63
2024/01/15 03:25:05;;;;;;;18.37;17.57;;;;;;;-141.02;100.00;38231.69;5094205;28;20228;-66
2024/01/15 03:27:32;;;;;;;19.00;18.20;;;;;;;-141.02;100.00;38243.19;5093540;28;20667;-65
2024/01/15 03:29:58;;;;;;;18.03;17.23;;;;;;;-141.02;100.00;38210.59;5093700;28;20288;-64
2024/01/15 03:32:27;;;;;;;17.47;16.77;;;;;;;-141.02;100.00;38237.44;5093418;28;20280;-62
2024/01/15 03:34:54;;;;;;;17.30;16.70;;;;;;;-141.02;100.00;38239.38;5093903;28;20197;-65
2024/01/15 03:37:20;;;;;;;16.83;16.23;;;;;;;-141.02;100.00;38220.19;5093674;28;20198;-66
2024/01/15 03:39:47;;;;;;;16.90;16.30;;;;;;;-141.02;100.00;38247.03;5093262;28;20279;-66
2024/01/15 03:42:15;;;;;;;15.07;14.57;;;;;;;-141.02;100.00;38243.19;5093499;28;20281;-65
2024/01/15 03:44:42;;;;;;;16.37;15.77;;;;;;;-141.02;100.00;38235.53;5093148;28;20222;-64
2024/01/15 03:47:10;;;;;;;16.50;15.90;;;;;;;-141.02;100.00;38289.22;5093114;28;20288;-63
2024/01/15 03:49:38;;;;;;;17.57;16.97;;;;;;;-141.02;100.00;38289.22;5093471;28;20219;-63
2024/01/15 03:52:06;;;;;;;16.77;16.17;;;;;;;-141.02;100.00;38316.06;5093106;28;20229;-64
2024/01/15 03:54:33;;;;;;;17.43;16.73;;;;;;;-141.02;100.00;38339.06;5093007;28;20739;-64
2024/01/15 03:57:03;;;;;;;16.90;16.20;;;;;;;-141.02;100.00;38327.56;5092918;28;20198;-63
2024/01/15 03:59:33;;;;;;;17.30;16.70;;;;;;;-141.02;100.00;38358.22;5092757;28;20196;-64
2024/01/15 04:02:00;;;;;;;19.13;18.33;;;;;;;-141.02;100.00;38350.56;5092906;28;20281;-67
2024/01/15 04:04:27;;;;;;;18.40;17.70;;;;;;;-141.02;100.00;38365.91;5093155;28;20237;-63
2024/01/15 04:06:55;;;;;;;18.70;18.00;;;;;;;-141.02;100.00;38335.22;5092801;28;20229;-65
2024/01/15 04:09:22;;;;;;;18.83;18.03;;;;;;;-141.02;100.00;38354.41;5093055;28;20197;-63
2024/01/15 04:11:49;;;;;;;19.33;18.53;;;;;;;-141.02;100.00;38377.41;5092693;28;20194;-64
2024/01/15 04:14:16;;;;;;;19.10;18.30;;;;;;;-141.02;100.00;38373.56;5092755;28;20656;-64
2024/01/15 04:16:43;;;;;;;19.60;18.80;;;;;;;-141.02;100.00;38362.06;5092719;28;20282;-66
2024/01/15 04:19:10;;;;;;;19.87;19.07;;;;;;;-141.02;100.00;38373.56;5092660;28;20243;-65
2024/01/15 04:21:37;;;;;;;16.30;15.70;;;;;;;-141.02;100.00;38381.22;5092876;28;20288;-64
2024/01/15 04:24:06;;;;;;;16.87;16.27;;;;;;;-141.02;100.00;38381.22;5092448;28;20248;-64
2024/01/15 04:26:33;;;;;;;17.30;16.70;;;;;;;-141.02;100.00;38373.56;5092804;28;20312;-66
2024/01/15 04:29:00;;;;;;;16.37;15.77;;;;;;;-141.02;100.00;38381.22;5092733;28;20288;-66
2024/01/15 04:31:27;;;;;;;17.60;17.00;;;;;;;-141.02;100.00;38371.66;5092737;28;20280;-65
2024/01/15 04:33:54;;;;;;;16.80;16.20;;;;;;;-141.02;100.00;38369.72;5092608;28;20197;-66
2024/01/15 04:36:21;;;;;;;19.10;18.40;;;;;;;-141.02;100.00;38406.16;5092702;28;20194;-63
2024/01/15 04:38:48;;;;;;;18.23;17.53;;;;;;;-141.02;100.00;38369.72;5092629;28;20221;-64
2024/01/15 04:41:18;;;;;;;19.60;18.80;;;;;;;-141.02;100.00;38408.06;5092555;28;20247;-64
2024/01/15 04:43:45;;;;;;;21.13;20.23;;;;;;;-141.02;100.00;38461.75;5092263;28;20236;-66
2024/01/15 04:46:12;;;;;;;19.23;18.43;;;;;;;-141.02;100.00;38454.09;5092652;28;20236;-66
2024/01/15 04:48:39;;;;;;;21.20;20.30;;;;;;;-141.02;100.00;38433.00;5092170;28;20289;-66
2024/01/15 04:51:07;;;;;;;22.53;21.63;;;;;;;-141.02;100.00;38421.50;5092135;28;20193;-64
2024/01/15 04:53:34;;;;;;;21.60;20.70;;;;;;;-141.02;100.00;38440.66;5092147;28;20280;-67
2024/01/15 04:56:01;;;;;;;20.30;19.50;;;;;;;-141.02;100.00;38408.06;5092405;28;20233;-64
2024/01/15 04:58:30;;;;;;;18.77;17.97;;;;;;;-141.02;100.00;38415.75;5092058;28;20237;-65
2024/01/15 05:00:57;;;;;;;19.73;18.93;;;;;;;-141.02;100.00;38427.25;5092406;28;20233;-67
2024/01/15 05:03:24;;;;;;;20.03;19.13;;;;;;;-141.02;100.00;38392.75;5092336;28;20204;-63
2024/01/15 05:05:50;;;;;;;17.80;17.10;;;;;;;-141.02;100.00;38404.25;5092209;28;20229;-65
2024/01/15 05:08:17;;;;;;;19.47;18.60;;;;;;;-141.02;100.00;38354.41;5092269;28;20212;-63
2024/01/15 05:10:45;;;;;;;16.90;16.20;;;;;;;-141.02;100.00;38365.91;5092281;28;20198;-64
2024/01/15 05:13:12;;;;;;;17.73;17.03;;;;;;;-141.02;100.00;38319.88;5095019;28;20197;-67
2024/01/15 05:15:40;;;;;;;19.33;18.53;;;;;;;-141.02;100.00;38312.22;5095948;28;20700;-64
2024/01/15 05:18:07;;;;;;;14.70;14.20;;;;;;;-141.02;100.00;38325.63;5096299;28;20264;-67
2024/01/15 05:20:34;;;;;;;17.70;17.00;;;;;;;-141.02;100.00;38308.38;5096256;28;20301;-66
2024/01/15 05:23:01;;;;;;;17.67;16.97;;;;;;;-141.02;100.00;38319.88;5095963;28;20280;-64
2024/01/15 05:25:28;;;;;;;19.87;18.97;;;;;;;-141.02;100.00;38316.06;5096135;28;20232;-67
2024/01/15 05:27:55;;;;;;;18.37;17.57;;;;;;;-141.02;100.00;38306.47;5096052;28;20197;-66
2024/01/15 05:30:22;;;;;;;18.63;17.83;;;;;;;-141.02;100.00;38316.06;5096147;28;20193;-66
2024/01/15 05:32:50;;;;;;;18.07;17.37;;;;;;;-141.02;100.00;38331.38;5096021;28;20194;-64
2024/01/15 05:35:17;;;;;;;18.83;18.03;;;;;;;-141.02;100.00;38369.72;5095930;28;20763;-63
2024/01/15 05:37:46;;;;;;;18.77;17.97;;;;;;;-141.02;100.00;38415.75;5095731;28;20281;-67
2024/01/15 05:40:13;;;;;;;21.37;20.47;;;;;;;-141.02;100.00;38532.69;5095537;28;20607;-67
2024/01/15 05:42:41;;;;;;;20.17;19.27;;;;;;;-141.02;100.00;38776.19;5096117;28;20198;-67
2024/01/15 05:45:09;;;;;;;19.23;18.43;;;;;;;-141.02;100.00;38862.50;5095708;28;20225;-64
2024/01/15 05:47:36;;;;;;;20.17;19.27;;;;;;;-141.02;100.00;38709.09;5095825;28;20240;-66
2024/01/15 05:50:04;;;;;;;19.90;19.00;;;;;;;-141.02;100.00;38680.34;5095751;28;20200;-66
2024/01/15 05:52:34;;;;;;;22.03;21.03;;;;;;;-141.02;100.00;38678.41;5095666;28;20197;-64
2024/01/15 05:55:01;;;;;;;20.03;19.13;;;;;;;-141.02;100.00;38737.84;5095361;28;20300;-66
2024/01/15 05:57:28;;;;;;;20.80;19.80;;;;;;;-141.02;100.00;38814.56;5095533;28;20202;-63
2024/01/15 05:59:55;;;;;;;20.33;19.43;;;;;;;-141.02;100.00;38921.94;5095827;28;20198;-67
2024/01/15 06:02:22;;;;;;;19.50;18.60;;;;;;;-141.02;100.00;38998.63;5095171;28;20219;-65
2024/01/15 06:04:49;;;;;;;17.57;16.87;;;;;;;-141.02;100.00;39125.19;5095090;28;20707;-64
2024/01/15 06:07:17;;;;;;;19.40;18.60;;;;;;;-141.02;100.00;39217.25;5095315;28;20550;-64
2024/01/15 06:09:44;;;;;;;20.23;19.37;;;;;;;-141.02;100.00;39316.97;5095311;28;20277;-64
2024/01/15 06:12:12;;;;;;;21.33;20.33;;;;;;;-141.02;100.00;39328.47;5095033;28;20197;-65
2024/01/15 06:14:39;;;;;;;20.87;19.87;;;;;;;-141.02;100.00;39433.94;5094960;28;20229;-65
2024/01/15 06:17:06;;;;;;;21.23;20.23;;;;;;;-141.02;100.00;39478.06;5094140;28;20182;-67
2024/01/15 06:19:32;;;;;;;20.23;19.33;;;;;;;-141.02;100.00;39526.00;5093623;28;20204;-63
2024/01/15 06:21:59;;;;;;;20.50;19.60;;;;;;;-141.02;100.00;39533.66;5093644;28;20194;-65
2024/01/15 06:24:28;;;;;;;20.33;19.43;;;;;;;-141.02;100.00;39527.91;5093466;28;20193;-66
2024/01/15 06:26:54;;;;;;;18.30;17.50;;;;;;;-141.02;100.00;39550.94;5093524;28;20572;-66
2024/01/15 06:29:21;;;;;;;19.20;18.30;;;;;;;-141.02;100.00;39608.47;5093895;28;20193;-66
2024/01/15 06:31:48;;;;;;;19.07;18.17;;;;;;;-141.02;100.00;39666.00;5093542;28;20198;-66
2024/01/15 06:34:16;;;;;;;20.97;19.97;;;;;;;-141.02;100.00;39723.53;5093706;28;20293;-63
2024/01/15 06:36:43;;;;;;;21.97;20.90;;;;;;;-141.02;100.00;39702.44;5093449;28;20227;-64
2024/01/15 06:39:11;;;;;;;19.40;18.50;;;;;;;-141.02;100.00;39758.06;5093932;28;20190;-64
2024/01/15 06:41:43;;;;;;;22.10;20.80;;;;;;;-141.02;100.00;39700.53;5093640;28;20216;-64
2024/01/15 06:44:10;;;;;;;19.87;18.87;;;;;;;-141.02;100.00;39750.41;5093337;28;20701;-64
2024/01/15 06:46:38;;;;;;;26.17;24.67;;;;;;;-141.02;100.00;39773.41;5093765;28;20240;-63
2024/01/15 06:49:04;;;;;;;26.90;25.43;;;;;;;-141.02;100.00;39815.59;5093239;28;20193;-66
2024/01/15 06:51:31;;;;;;;23.00;21.80;;;;;;;-141.02;100.00;39830.94;5093154;28;20197;-64
2024/01/15 06:53:58;;;;;;;21.00;19.90;;;;;;;-141.02;100.00;39823.28;5093195;28;20202;-64
2024/01/15 06:56:25;;;;;;;21.70;20.60;;;;;;;-141.02;100.00;39840.53;5093175;28;20201;-66
2024/01/15 06:58:53;;;;;;;25.10;23.80;;;;;;;-141.02;100.00;39788.75;5093156;28;20229;-67
2024/01/15 07:01:20;;;;;;;28.47;26.97;;;;;;;-141.02;100.00;39685.19;5093279;28;20281;-63
2024/01/15 07:03:47;;;;;;;23.90;22.70;;;;;;;-141.02;100.00;39566.28;5093000;28;20652;-67
2024/01/15 07:06:14;;;;;;;22.87;21.67;;;;;;;-141.02;100.00;39550.94;5093170;28;20313;-68
2024/01/15 07:08:42;;;;;;;26.37;25.07;;;;;;;-141.02;100.00;39554.78;5093248;28;20659;-66
2024/01/15 07:11:09;;;;;;;23.40;22.20;;;;;;;-141.02;100.00;39539.44;5092936;28;20259;-65
2024/01/15 07:13:37;;;;;;;23.40;22.20;;;;;;;-141.02;100.00;39554.78;5092847;28;20288;-66
2024/01/15 07:16:06;;;;;;;21.80;20.70;;;;;;;-141.02;100.00;39535.59;5051032;28;1205479;-64
2024/01/15 07:18:33;;;;;;;21.60;20.50;;;;;;;-141.02;100.00;39535.59;5093720;28;20200;-64
2024/01/15 07:21:01;;;;;;;21.97;20.87;;;;;;;-141.02;100.00;39501.06;5093961;28;20198;-65
2024/01/15 07:23:28;;;;;;;22.23;21.13;;;;;;;-141.02;100.00;39447.38;5093999;28;20316;-66
2024/01/15 07:25:55;;;;;;;22.57;21.47;;;;;;;-141.02;100.00;39412.84;5093756;28;20304;-65
2024/01/15 07:28:22;;;;;;;23.03;21.93;;;;;;;-141.02;100.00;39445.44;5093829;28;20190;-67
2024/01/15 07:30:49;;;;;;;23.67;22.47;;;;;;;-141.02;100.00;39470.38;5093766;28;20555;-64
2024/01/15 07:33:17;;;;;;;23.10;22.00;;;;;;;-141.02;100.00;39451.22;5093433;28;20755;-68
2024/01/15 07:35:44;;;;;;;20.57;19.67;;;;;;;-141.02;100.00;39466.53;5092900;28;20200;-68
2024/01/15 07:38:11;;;;;;;20.73;19.83;;;;;;;-141.02;100.00;39491.47;5093275;28;20642;-68
2024/01/15 07:40:38;;;;;;;18.23;17.43;;;;;;;-141.02;100.00;39455.03;5093634;28;20197;-68
2024/01/15 07:43:05;;;;;;;19.30;18.40;;;;;;;-141.02;100.00;39479.97;5093475;28;20247;-67
2024/01/15 07:45:32;;;;;;;19.13;18.33;;;;;;;-141.02;100.00;39424.34;5093429;28;20264;-65
2024/01/15 07:47:59;;;;;;;20.57;19.67;;;;;;;-141.02;100.00;39527.91;5093383;28;20226;-66
2024/01/15 07:50:27;;;;;;;21.10;20.13;;;;;;;-141.02;100.00;39581.63;5093123;28;20280;-65
2024/01/15 07:52:54;;;;;;;21.77;20.70;;;;;;;-141.02;100.00;39595.03;5093355;28;20193;-66
2024/01/15 07:55:21;;;;;;;23.63;22.43;;;;;;;-141.02;100.00;39600.78;5092999;28;20245;-68
2024/01/15 07:57:48;;;;;;;25.20;24.00;;;;;;;-141.02;100.00;39639.16;5093505;28;20225;-68
2024/01/15 08:00:16;;;;;;;29.13;27.63;;;;;;;-141.02;100.00;39658.34;5093106;28;20194;-69
2024/01/15 08:02:43;;;;;;;30.37;28.77;;;;;;;-141.02;100.00;39692.84;5092839;28;20289;-65
2024/01/15 08:05:10;;;;;;;26.57;25.17;;;;;;;-141.02;100.00;39746.56;5093092;28;20277;-68
2024/01/15 08:07:38;;;;;;;24.43;23.13;;;;;;;-141.02;100.00;39781.09;5092757;28;20200;-68
2024/01/15 08:10:06;;;;;;;28.63;27.13;;;;;;;-141.02;100.00;39792.59;5093059;28;20231;-67
2024/01/15 08:12:33;;;;;;;30.27;28.70;;;;;;;-141.02;100.00;39804.09;5092624;28;20189;-69
2024/01/15 08:15:00;;;;;;;26.23;24.83;;;;;;;-141.02;100.00;39869.31;5092786;28;20681;-68
2024/01/15 08:17:28;;;;;;;25.97;24.57;;;;;;;-141.02;100.00;40011.25;5095225;28;20194;-69
2024/01/15 08:19:56;;;;;;;30.97;29.27;;;;;;;-141.02;100.00;40036.19;5113327;28;20189;-65
2024/01/15 08:22:23;;;;;;;27.27;25.77;;;;;;;-141.02;100.00;40180.06;5113224;28;20302;-66
2024/01/15 08:24:51;;;;;;;26.10;24.60;;;;;;;-141.02;100.00;40172.38;5113373;28;20197;-67
2024/01/15 08:27:19;;;;;;;26.27;24.87;;;;;;;-141.02;100.00;40041.94;5113142;28;20228;-67
2024/01/15 08:29:46;;;;;;;29.57;27.97;;;;;;;-141.02;100.00;40034.28;5112748;28;20254;-67
2024/01/15 08:32:15;;;;;;;28.23;26.73;;;;;;;-141.02;100.00;40045.78;5113007;28;20281;-69
2024/01/15 08:34:42;;;;;;;28.40;26.80;;;;;;;-141.02;100.00;40030.44;5113287;28;20197;-67
2024/01/15 08:37:09;;;;;;;27.80;26.30;;;;;;;-141.02;100.00;40030.44;5113405;28;20192;-71
2024/01/15 08:39:38;;;;;;;28.80;27.20;;;;;;;-141.02;100.00;40028.50;5112984;28;20235;-68
2024/01/15 08:42:09;;;;;;;29.47;27.87;;;;;;;-141.02;100.00;39980.56;5112888;28;20197;-70
2024/01/15 08:44:36;;;;;;;29.67;27.87;;;;;;;-141.02;100.00;39953.72;5112570;28;20204;-71
2024/01/15 08:47:04;;;;;;;23.47;22.07;;;;;;;-141.02;100.00;39953.72;5112912;28;20235;-74
2024/01/15 08:49:31;;;;;;;22.33;21.13;;;;;;;-141.02;100.00;39884.66;5112799;28;20197;-72
2024/01/15 08:51:57;;;;;;;21.93;20.73;;;;;;;-141.02;100.00;39903.84;5112834;28;20276;-72
2024/01/15 08:54:25;;;;;;;22.63;21.33;;;;;;;-141.02;100.00;39961.38;5112371;28;20189;-72
2024/01/15 08:56:52;;;;;;;22.70;21.40;;;;;;;-141.02;100.00;39953.72;5112454;28;20280;-71
2024/01/15 08:59:24;;;;;;;20.50;19.30;;;;;;;-141.02;100.00;40040.03;5112390;28;20195;-75
2024/01/15 09:01:51;;;;;;;22.80;21.60;;;;;;;-141.02;100.00;40322.00;5112803;28;20189;-73
2024/01/15 09:04:19;;;;;;;21.13;19.93;;;;;;;-141.02;100.00;40107.16;5112628;28;20204;-76
2024/01/15 09:06:46;;;;;;;23.07;21.73;;;;;;;-141.02;100.00;40168.53;5112575;28;20224;-69
2024/01/15 09:09:13;;;;;;;22.23;20.83;;;;;;;-141.02;100.00;40408.34;5112525;28;20181;-70
2024/01/15 09:11:41;;;;;;;23.37;22.00;;;;;;;-141.02;100.00;40348.88;5112610;28;20280;-70
2024/01/15 09:14:09;;;;;;;22.63;21.23;;;;;;;-141.02;100.00;40302.81;5112621;28;20225;-68
2024/01/15 09:16:37;;;;;;;30.87;28.97;;;;;;;-141.02;100.00;40241.44;5112141;28;20293;-70
2024/01/15 09:19:04;;;;;;;22.90;21.50;;;;;;;-141.02;100.00;40222.25;5112597;28;20193;-69
2024/01/15 09:21:31;;;;;;;20.03;18.63;;;;;;;-141.02;100.00;40379.56;5112167;28;20193;-68
2024/01/15 09:23:58;;;;;;;21.73;20.33;;;;;;;-141.02;100.00;40306.66;5112463;28;20291;-69
2024/01/15 09:26:25;;;;;;;19.30;18.00;;;;;;;-141.02;100.00;40249.13;5112088;28;20311;-67
2024/01/15 09:28:53;;;;;;;22.60;21.00;;;;;;;-141.02;100.00;40323.94;5112428;28;20283;-66
2024/01/15 09:31:20;;;;;;;21.53;20.13;;;;;;;-141.02;100.00;40095.66;5112292;28;20738;-67
2024/01/15 09:33:48;;;;;;;22.23;20.73;;;;;;;-141.02;100.00;40072.63;5112400;28;20197;-67
2024/01/15 09:36:15;;;;;;;22.20;20.70;;;;;;;-141.02;100.00;40137.84;5112696;28;20189;-67
2024/01/15 09:38:42;;;;;;;24.67;23.10;;;;;;;-141.02;100.00;40139.78;5112476;28;20194;-67
2024/01/15 09:41:09;;;;;;;24.73;23.13;;;;;;;-141.02;100.00;40168.53;5112044;28;20562;-67
2024/01/15 09:43:38;;;;;;;26.60;25.00;;;;;;;-141.02;100.00;40124.44;5112301;28;20197;-66
2024/01/15 09:46:05;;;;;;;22.53;21.13;;;;;;;-141.02;100.00;40218.41;5111830;28;20721;-66
2024/01/15 09:48:34;;;;;;;20.97;19.57;;;;;;;-141.02;100.00;40494.66;5112314;28;20255;-66
2024/01/15 09:51:02;;;;;;;23.13;21.63;;;;;;;-141.02;100.00;40648.13;5112256;28;20200;-65
2024/01/15 09:53:29;;;;;;;24.00;22.40;;;;;;;-141.02;100.00;40728.72;5112314;28;20716;-65
2024/01/15 09:55:57;;;;;;;24.90;23.20;;;;;;;-141.02;98.03;40721.03;5112281;28;20280;-65
2024/01/15 09:58:24;;;;;;;21.17;19.57;;;;;;;-141.02;88.12;40832.31;5113705;28;20281;-65
2024/01/15 10:00:53;;;;;;;27.20;25.30;;;;;;;-141.02;82.81;40912.91;5115601;28;20197;-65
2024/01/15 10:03:43;;;;;;;25.70;23.70;;;;;;;-141.02;91.60;41106.69;5115898;28;20284;-65
2024/01/15 10:06:17;;;;;;;23.10;21.10;;;;;;;-141.02;86.26;41106.69;5115471;28;20267;-66
2024/01/15 10:08:48;;;;;;;22.70;20.80;;;;;;;-141.02;86.11;41158.50;5115784;28;20193;-67
2024/01/15 10:11:16;;;;;;;25.43;23.33;;;;;;;-141.02;84.01;41171.94;5115803;28;20221;-68
2024/01/15 10:13:44;;;;;;;27.90;25.60;;;;;;;-141.02;84.03;41031.84;5115403;28;20224;-68
2024/01/15 10:16:12;;;;;;;29.17;26.77;;;;;;;-141.02;84.44;41120.13;5115373;28;20240;-69
2024/01/15 10:18:39;;;;;;;24.90;22.60;;;;;;;-141.02;83.33;41108.59;5115527;28;20659;-69
2024/01/15 10:21:08;;;;;;;27.50;25.10;;;;;;;-141.02;84.51;41074.06;5115916;28;20237;-70
2024/01/15 10:23:37;;;;;;;26.63;24.23;;;;;;;-141.02;82.92;40934.00;5115197;28;20233;-70
2024/01/15 10:26:04;;;;;;;27.10;24.70;;;;;;;-141.02;83.67;41100.94;5115243;28;20229;-70
2024/01/15 10:28:32;;;;;;;24.30;21.97;;;;;;;-141.02;84.83;41049.13;5115126;28;20284;-70
2024/01/15 10:31:00;;;;;;;28.10;25.60;;;;;;;-141.02;85.01;40978.13;5115003;28;20658;-70
2024/01/15 10:33:27;;;;;;;26.50;24.10;;;;;;;-141.02;85.07;41177.69;5115236;28;20197;-69
2024/01/15 10:35:55;;;;;;;27.23;24.73;;;;;;;-141.02;82.16;41170.00;5115225;28;20285;-69
2024/01/15 10:38:22;;;;;;;23.97;21.67;;;;;;;-141.02;83.40;41166.16;5114935;28;20276;-70
2024/01/15 10:40:52;;;;;;;28.20;25.70;;;;;;;-141.02;82.12;41114.38;5115073;28;20702;-70
2024/01/15 10:43:20;;;;;;;27.07;24.57;;;;;;;-141.02;81.24;41177.69;5115383;28;20193;-71
2024/01/15 10:45:47;;;;;;;28.70;26.10;;;;;;;-141.02;79.92;41110.53;5115090;28;20197;-72
2024/01/15 10:48:14;;;;;;;28.73;26.23;;;;;;;-141.02;83.99;41143.16;5114645;28;20225;-73
2024/01/15 10:50:41;;;;;;;27.87;25.47;;;;;;;-141.02;85.62;41104.78;5114994;28;20236;-71
2024/01/15 10:53:10;;;;;;;25.60;23.20;;;;;;;-141.02;85.02;41016.50;5114941;28;20276;-74
2024/01/15 10:55:39;;;;;;;24.07;21.77;;;;;;;-141.02;82.66;40916.75;5114949;28;20201;-72